createdAt,value
2018-07-02T00:01:30.041Z,21.20
2018-07-02T00:04:54.517Z,21.20
2018-07-02T00:08:19.171Z,21.23
2018-07-02T00:11:43.630Z,21.21
2018-07-02T00:15:08.357Z,21.09
2018-07-02T00:18:32.786Z,21.03
2018-07-02T00:21:57.298Z,21.09
2018-07-02T00:25:21.748Z,21.01
2018-07-02T00:28:46.223Z,20.94
2018-07-02T00:32:10.695Z,20.92
2018-07-02T00:35:35.302Z,20.76
2018-07-02T00:38:59.751Z,20.68
2018-07-02T00:42:24.343Z,20.45
2018-07-02T00:45:48.843Z,20.27
2018-07-02T00:49:13.312Z,20.17
2018-07-02T00:52:37.959Z,20.09
2018-07-02T00:56:02.467Z,19.98
2018-07-02T00:59:26.995Z,19.88
2018-07-02T01:02:51.532Z,19.99
2018-07-02T01:06:16.233Z,19.97
2018-07-02T01:09:40.848Z,19.70
2018-07-02T01:13:05.512Z,19.62
2018-07-02T01:16:30.060Z,19.57
2018-07-02T01:19:54.637Z,19.42
2018-07-02T01:23:19.191Z,19.36
2018-07-02T01:26:43.655Z,19.26
2018-07-02T01:30:08.270Z,19.22
2018-07-02T01:33:33.050Z,19.03
2018-07-02T01:36:57.511Z,19.06
2018-07-02T01:40:22.047Z,18.82
2018-07-02T01:43:46.591Z,18.65
2018-07-02T01:47:11.147Z,18.39
2018-07-02T01:50:35.759Z,18.43
2018-07-02T01:54:00.344Z,18.46
2018-07-02T01:57:24.981Z,18.26
2018-07-02T02:00:49.555Z,18.15
2018-07-02T02:04:14.062Z,18.17
2018-07-02T02:07:38.813Z,17.90
2018-07-02T02:11:03.350Z,17.97
2018-07-02T02:14:27.928Z,17.85
2018-07-02T02:17:52.424Z,17.85
2018-07-02T02:21:17.026Z,17.69
2018-07-02T02:24:41.605Z,17.65
2018-07-02T02:28:06.249Z,17.53
2018-07-02T02:31:30.828Z,17.76
2018-07-02T02:34:55.337Z,17.62
2018-07-02T02:38:19.925Z,17.53
2018-07-02T02:41:44.441Z,17.52
2018-07-02T02:45:09.128Z,17.48
2018-07-02T02:48:33.669Z,17.39
2018-07-02T02:51:58.277Z,17.35
2018-07-02T02:55:22.847Z,17.13
2018-07-02T02:58:47.449Z,17.01
2018-07-02T03:02:12.078Z,17.10
2018-07-02T03:05:37.166Z,17.03
2018-07-02T03:09:01.892Z,16.96
2018-07-02T03:12:26.489Z,16.97
2018-07-02T03:15:51.002Z,16.99
2018-07-02T03:19:15.537Z,16.99
2018-07-02T03:22:39.997Z,17.04
2018-07-02T03:26:04.565Z,16.97
2018-07-02T03:29:29.140Z,16.98
2018-07-02T03:32:53.711Z,16.91
2018-07-02T03:36:18.295Z,16.98
2018-07-02T03:39:42.784Z,16.92
2018-07-02T03:43:07.353Z,17.07
2018-07-02T03:46:31.883Z,17.03
2018-07-02T03:49:56.444Z,16.99
2018-07-02T03:53:21.029Z,16.96
2018-07-02T03:56:45.618Z,16.96
2018-07-02T04:00:10.324Z,17.15
2018-07-02T04:03:34.856Z,17.24
2018-07-02T04:06:59.490Z,17.26
2018-07-02T04:10:24.005Z,17.32
2018-07-02T04:13:48.615Z,17.44
2018-07-02T04:17:13.235Z,17.53
2018-07-02T04:20:37.810Z,17.57
2018-07-02T04:24:02.402Z,17.81
2018-07-02T04:27:26.915Z,17.90
2018-07-02T04:30:51.488Z,18.05
2018-07-02T04:34:16.123Z,18.06
2018-07-02T04:37:40.732Z,18.10
2018-07-02T04:41:05.359Z,18.20
2018-07-02T04:44:29.961Z,18.36
2018-07-02T04:47:54.559Z,18.46
2018-07-02T04:51:19.220Z,18.50
2018-07-02T04:54:43.633Z,18.64
2018-07-02T04:58:08.244Z,18.70
2018-07-02T05:01:32.832Z,18.76
2018-07-02T05:04:57.659Z,18.81
2018-07-02T05:08:22.652Z,19.04
2018-07-02T05:11:47.118Z,19.09
2018-07-02T05:15:11.543Z,19.12
2018-07-02T05:18:36.042Z,18.98
2018-07-02T05:22:00.576Z,19.14
2018-07-02T05:25:25.143Z,19.22
2018-07-02T05:28:49.522Z,19.22
2018-07-02T05:32:14.069Z,19.20
2018-07-02T05:35:38.522Z,19.41
2018-07-02T05:39:03.028Z,19.42
2018-07-02T05:42:27.515Z,19.35
2018-07-02T05:45:52.370Z,19.50
2018-07-02T05:49:16.830Z,19.61
2018-07-02T05:52:41.290Z,19.62
2018-07-02T05:56:05.867Z,19.81
2018-07-02T05:59:30.341Z,19.91
2018-07-02T06:02:54.890Z,19.98
2018-07-02T06:06:19.852Z,20.15
2018-07-02T06:09:44.327Z,20.29
2018-07-02T06:13:08.943Z,20.33
2018-07-02T06:16:33.465Z,20.32
2018-07-02T06:19:57.946Z,20.46
2018-07-02T06:23:22.544Z,20.61
2018-07-02T06:26:47.051Z,20.64
2018-07-02T06:30:11.594Z,20.81
2018-07-02T06:33:36.112Z,20.77
2018-07-02T06:37:00.638Z,20.99
2018-07-02T06:40:25.226Z,21.04
2018-07-02T06:43:49.738Z,21.09
2018-07-02T06:47:14.248Z,21.34
2018-07-02T06:50:38.824Z,21.52
2018-07-02T06:54:03.354Z,21.56
2018-07-02T06:57:27.924Z,21.66
2018-07-02T07:00:52.396Z,21.80
2018-07-02T07:04:17.215Z,21.91
2018-07-02T07:07:41.766Z,21.94
2018-07-02T07:11:06.361Z,22.00
2018-07-02T07:14:30.916Z,22.15
2018-07-02T07:17:55.480Z,22.25
2018-07-02T07:21:20.106Z,22.32
2018-07-02T07:24:44.646Z,22.46
2018-07-02T07:28:09.105Z,22.57
2018-07-02T07:31:33.674Z,22.67
2018-07-02T07:34:58.211Z,22.72
2018-07-02T07:38:22.738Z,22.82
2018-07-02T07:41:47.260Z,23.00
2018-07-02T07:45:11.815Z,23.03
2018-07-02T07:48:36.298Z,23.17
2018-07-02T07:52:00.771Z,23.29
2018-07-02T07:55:25.305Z,23.35
2018-07-02T07:58:49.848Z,23.55
2018-07-02T08:02:14.359Z,23.62
2018-07-02T08:05:38.787Z,23.80
2018-07-02T08:09:03.742Z,23.85
2018-07-02T08:12:28.321Z,23.96
2018-07-02T08:15:52.770Z,23.96
2018-07-02T08:19:17.257Z,24.12
2018-07-02T08:22:41.815Z,24.46
2018-07-02T08:26:06.253Z,24.58
2018-07-02T08:29:30.667Z,24.76
2018-07-02T08:32:55.248Z,24.92
2018-07-02T08:36:19.643Z,24.98
2018-07-02T08:39:44.407Z,25.18
2018-07-02T08:43:08.615Z,25.30
2018-07-02T08:46:33.159Z,25.45
2018-07-02T08:49:57.651Z,25.49
2018-07-02T08:53:22.098Z,25.63
2018-07-02T08:56:46.540Z,25.70
2018-07-02T09:00:11.019Z,26.00
2018-07-02T09:03:35.547Z,25.92
2018-07-02T09:07:00.205Z,26.25
2018-07-02T09:10:24.667Z,26.42
2018-07-02T09:13:49.161Z,26.49
2018-07-02T09:17:13.587Z,26.77
2018-07-02T09:20:38.015Z,26.80
2018-07-02T09:24:02.622Z,26.93
2018-07-02T09:27:27.188Z,27.02
2018-07-02T09:30:51.753Z,27.27
2018-07-02T09:34:16.171Z,27.46
2018-07-02T09:37:40.599Z,27.49
2018-07-02T09:41:05.058Z,27.85
2018-07-02T09:44:29.454Z,27.82
2018-07-02T09:47:54.033Z,27.72
2018-07-02T09:51:18.487Z,28.24
2018-07-02T09:54:42.893Z,28.48
2018-07-02T09:58:07.436Z,28.78
2018-07-02T10:01:31.927Z,29.12
2018-07-02T10:04:56.345Z,29.19
2018-07-02T10:08:20.777Z,29.28
2018-07-02T10:11:45.194Z,29.77
2018-07-02T10:15:09.634Z,29.89
2018-07-02T10:18:34.106Z,29.54
2018-07-02T10:21:58.568Z,30.08
2018-07-02T10:25:23.021Z,29.99
2018-07-02T10:28:47.415Z,30.17
2018-07-02T10:32:11.846Z,30.01
2018-07-02T10:35:36.259Z,30.02
2018-07-02T10:39:00.708Z,30.65
2018-07-02T10:42:25.125Z,30.98
2018-07-02T10:45:49.579Z,31.38
2018-07-02T10:49:14.021Z,31.79
2018-07-02T10:52:38.470Z,32.04
2018-07-02T10:56:03.010Z,32.00
2018-07-02T10:59:27.541Z,33.16
2018-07-02T11:02:52.376Z,34.03
2018-07-02T11:06:16.928Z,34.00
2018-07-02T11:09:41.452Z,34.40
2018-07-02T11:13:12.083Z,34.70
2018-07-02T11:16:36.708Z,35.63
2018-07-02T11:20:01.274Z,36.98
2018-07-02T11:23:25.774Z,37.88
2018-07-02T11:26:50.237Z,38.81
2018-07-02T11:30:14.731Z,39.76
2018-07-02T11:33:39.196Z,41.37
2018-07-02T11:37:03.651Z,42.76
2018-07-02T11:40:28.047Z,43.53
2018-07-02T11:43:52.509Z,43.88
2018-07-02T11:47:17.064Z,44.52
2018-07-02T11:50:41.632Z,44.33
2018-07-02T11:54:06.308Z,44.19
2018-07-02T11:57:30.937Z,45.55
2018-07-02T12:00:55.464Z,45.81
2018-07-02T12:04:20.012Z,45.95
2018-07-02T12:07:44.600Z,45.54
2018-07-02T12:11:09.114Z,46.57
2018-07-02T12:14:33.639Z,47.89
2018-07-02T12:17:58.076Z,47.33
2018-07-02T12:21:22.598Z,47.86
2018-07-02T12:24:47.100Z,47.62
2018-07-02T12:28:11.553Z,47.62
2018-07-02T12:31:35.977Z,47.72
2018-07-02T12:35:00.443Z,48.42
2018-07-02T12:38:24.898Z,48.03
2018-07-02T12:41:49.365Z,47.69
2018-07-02T12:45:13.941Z,46.48
2018-07-02T12:48:38.451Z,46.92
2018-07-02T12:52:02.867Z,47.38
2018-07-02T12:55:27.368Z,47.95
2018-07-02T12:58:51.795Z,48.09
2018-07-02T13:02:16.252Z,48.76
2018-07-02T13:05:40.670Z,47.92
2018-07-02T13:09:08.581Z,47.09
2018-07-02T13:12:33.149Z,46.77
2018-07-02T13:15:57.671Z,47.43
2018-07-02T13:19:22.674Z,47.91
2018-07-02T13:26:41.601Z,47.98
2018-07-02T13:30:06.845Z,48.16
2018-07-02T13:33:31.503Z,48.76
2018-07-02T13:36:56.074Z,47.77
2018-07-02T13:40:20.631Z,46.69
2018-07-02T13:43:45.128Z,46.99
2018-07-02T13:47:09.652Z,46.15
2018-07-02T13:50:34.269Z,46.99
2018-07-02T13:53:58.879Z,47.06
2018-07-02T13:57:23.568Z,47.12
2018-07-02T14:00:48.194Z,47.63
2018-07-02T14:04:12.752Z,46.31
2018-07-02T14:07:37.258Z,47.05
2018-07-02T14:11:01.723Z,46.79
2018-07-02T14:14:26.467Z,46.50
2018-07-02T14:17:51.001Z,46.80
2018-07-02T14:21:15.455Z,47.15
2018-07-02T14:24:40.061Z,46.42
2018-07-02T14:28:04.547Z,47.03
2018-07-02T14:31:29.076Z,45.68
2018-07-02T14:34:53.575Z,44.64
2018-07-02T14:38:18.069Z,46.98
2018-07-02T14:41:42.574Z,47.10
2018-07-02T14:45:07.473Z,47.17
2018-07-02T14:48:31.853Z,47.75
2018-07-02T14:51:56.446Z,47.63
2018-07-02T14:55:21.124Z,48.34
2018-07-02T14:58:45.645Z,47.32
2018-07-02T15:02:10.222Z,49.04
2018-07-02T15:05:34.856Z,47.68
2018-07-02T15:08:59.716Z,47.04
2018-07-02T15:12:24.443Z,47.69
2018-07-02T15:15:49.897Z,47.25
2018-07-02T15:19:14.522Z,47.86
2018-07-02T15:22:39.180Z,48.07
2018-07-02T15:26:03.897Z,48.42
2018-07-02T15:29:28.477Z,48.39
2018-07-02T15:32:53.075Z,47.75
2018-07-02T15:36:30.548Z,47.64
2018-07-02T15:39:55.856Z,47.57
2018-07-02T15:43:20.473Z,47.82
2018-07-02T15:46:45.071Z,46.57
2018-07-02T15:50:10.373Z,47.86
2018-07-02T15:53:34.913Z,47.24
2018-07-02T15:56:59.483Z,48.10
2018-07-02T16:00:24.143Z,47.52
2018-07-02T16:03:48.671Z,44.41
2018-07-02T16:07:13.407Z,45.59
2018-07-02T16:10:37.979Z,46.06
2018-07-02T16:14:02.547Z,45.92
2018-07-02T16:17:27.065Z,47.05
2018-07-02T16:20:51.737Z,47.30
2018-07-02T16:24:16.259Z,46.64
2018-07-02T16:27:40.863Z,45.37
2018-07-02T16:31:05.458Z,45.20
2018-07-02T16:34:31.074Z,43.94
2018-07-02T16:37:55.989Z,42.89
2018-07-02T16:41:20.588Z,42.56
2018-07-02T16:44:45.101Z,40.96
2018-07-02T16:48:09.614Z,39.72
2018-07-02T16:51:34.446Z,40.73
2018-07-02T16:54:58.942Z,40.74
2018-07-02T16:58:23.777Z,40.55
2018-07-02T17:01:48.516Z,40.29
2018-07-02T17:05:13.205Z,39.69
2018-07-02T17:08:37.681Z,40.02
2018-07-02T17:12:02.350Z,39.48
2018-07-02T17:15:26.860Z,37.12
2018-07-02T17:18:51.416Z,36.61
2018-07-02T17:22:15.917Z,35.92
2018-07-02T17:25:40.484Z,35.29
2018-07-02T17:29:05.109Z,34.75
2018-07-02T17:32:29.600Z,34.04
2018-07-02T17:35:54.501Z,33.65
2018-07-02T17:39:19.301Z,32.89
2018-07-02T17:42:44.070Z,32.97
2018-07-02T17:46:08.638Z,32.54
2018-07-02T17:49:33.175Z,32.33
2018-07-02T17:52:57.650Z,32.21
2018-07-02T17:56:22.437Z,32.06
2018-07-02T17:59:47.088Z,31.75
2018-07-02T18:03:11.717Z,31.64
2018-07-02T18:06:36.287Z,31.55
2018-07-02T18:10:00.918Z,31.15
2018-07-02T18:13:25.387Z,31.05
2018-07-02T18:16:49.875Z,30.84
2018-07-02T18:20:15.227Z,30.70
2018-07-02T18:23:39.707Z,30.67
2018-07-02T18:27:04.240Z,30.61
2018-07-02T18:30:28.665Z,30.54
2018-07-02T18:33:53.223Z,30.22
2018-07-02T18:37:17.637Z,30.31
2018-07-02T18:40:42.112Z,30.14
2018-07-02T18:44:07.190Z,29.88
2018-07-02T18:47:31.645Z,29.91
2018-07-02T18:50:56.087Z,29.69
2018-07-02T18:54:24.067Z,29.78
2018-07-02T18:57:48.879Z,29.71
2018-07-02T19:01:13.442Z,29.53
2018-07-02T19:04:38.882Z,29.52
2018-07-02T19:08:03.495Z,29.23
2018-07-02T19:11:28.051Z,29.19
2018-07-02T19:14:52.382Z,28.92
2018-07-02T19:18:16.883Z,28.90
2018-07-02T19:21:41.349Z,28.61
2018-07-02T19:25:08.838Z,28.30
2018-07-02T19:28:34.786Z,28.43
2018-07-02T19:31:59.706Z,28.61
2018-07-02T19:35:25.019Z,28.46
2018-07-02T19:38:50.627Z,28.29
2018-07-02T19:42:15.112Z,28.14
2018-07-02T19:45:39.607Z,27.95
2018-07-02T19:49:04.973Z,27.83
2018-07-02T19:52:30.345Z,27.68
2018-07-02T19:55:56.266Z,27.65
2018-07-02T19:59:22.642Z,27.51
2018-07-02T20:02:47.938Z,27.41
2018-07-02T20:06:13.333Z,27.22
2018-07-02T20:09:38.413Z,27.28
2018-07-02T20:13:03.965Z,27.12
2018-07-02T20:16:28.591Z,27.16
2018-07-02T20:19:53.127Z,26.97
2018-07-02T20:23:17.586Z,26.80
2018-07-02T20:26:43.089Z,26.59
2018-07-02T20:30:09.959Z,26.62
2018-07-02T20:33:35.317Z,26.56
2018-07-02T20:37:00.665Z,26.48
2018-07-02T20:40:25.271Z,26.56
2018-07-02T20:43:49.999Z,26.11
2018-07-02T20:47:14.463Z,26.14
2018-07-02T20:50:38.929Z,25.95
2018-07-02T20:54:03.492Z,25.79
2018-07-02T20:57:28.010Z,25.68
2018-07-02T21:00:52.482Z,25.69
2018-07-02T21:04:17.013Z,25.69
2018-07-02T21:07:41.591Z,25.53
2018-07-02T21:11:06.071Z,25.41
2018-07-02T21:14:30.698Z,25.33
2018-07-02T21:17:54.910Z,25.28
2018-07-02T21:21:19.457Z,25.17
2018-07-02T21:24:44.028Z,25.01
2018-07-02T21:28:08.843Z,25.00
2018-07-02T21:31:33.651Z,25.00
2018-07-02T21:34:58.351Z,24.90
2018-07-02T21:38:22.954Z,24.96
2018-07-02T21:41:47.587Z,24.87
2018-07-02T21:45:12.193Z,24.68
2018-07-02T21:48:36.711Z,24.79
2018-07-02T21:52:11.802Z,24.80
2018-07-02T21:55:36.344Z,24.80
2018-07-02T21:59:01.509Z,24.87
2018-07-02T22:02:26.089Z,24.77
2018-07-02T22:05:50.569Z,24.71
2018-07-02T22:09:15.268Z,24.57
2018-07-02T22:12:39.857Z,24.54
2018-07-02T22:16:05.035Z,24.57
2018-07-02T22:19:29.613Z,24.44
2018-07-02T22:22:54.022Z,24.34
2018-07-02T22:26:18.731Z,24.33
2018-07-02T22:29:43.717Z,24.20
2018-07-02T22:33:09.187Z,24.08
2018-07-02T22:36:33.848Z,24.01
2018-07-02T22:39:59.112Z,23.91
2018-07-02T22:43:23.787Z,23.97
2018-07-02T22:46:48.541Z,23.96
2018-07-02T22:50:13.143Z,23.97
2018-07-02T22:53:37.727Z,23.92
2018-07-02T22:57:02.229Z,23.87
2018-07-02T23:00:27.333Z,23.82
2018-07-02T23:03:52.036Z,23.74
2018-07-02T23:07:16.988Z,23.66
2018-07-02T23:10:41.492Z,23.62
2018-07-02T23:14:06.794Z,23.50
2018-07-02T23:17:31.216Z,23.48
2018-07-02T23:20:55.670Z,23.30
2018-07-02T23:24:20.170Z,23.28
2018-07-02T23:27:44.672Z,23.25
2018-07-02T23:31:09.211Z,23.17
2018-07-02T23:34:33.798Z,23.14
2018-07-02T23:37:58.309Z,23.16
2018-07-02T23:41:22.871Z,22.96
2018-07-02T23:44:47.365Z,23.00
2018-07-02T23:48:11.945Z,22.90
2018-07-02T23:51:36.489Z,22.90
2018-07-02T23:55:01.027Z,22.73
2018-07-02T23:58:26.033Z,22.73
